createdAt,value
2023-06-11T00:00:45.837Z,17.51
2023-06-11T00:01:45.825Z,17.63
2023-06-11T00:02:45.981Z,17.49
2023-06-11T00:03:45.881Z,17.63
2023-06-11T00:04:45.941Z,17.46
2023-06-11T00:05:45.768Z,17.46
2023-06-11T00:06:45.889Z,17.51
2023-06-11T00:07:45.783Z,17.56
2023-06-11T00:08:45.777Z,17.51
2023-06-11T00:09:45.750Z,17.57
2023-06-11T00:10:45.825Z,17.52
2023-06-11T00:11:45.737Z,17.45
2023-06-11T00:12:45.755Z,17.45
2023-06-11T00:13:45.732Z,17.46
2023-06-11T00:14:45.733Z,17.41
2023-06-11T00:15:45.764Z,17.36
2023-06-11T00:16:45.819Z,17.33
2023-06-11T00:17:45.730Z,17.34
2023-06-11T00:18:45.724Z,17.33
2023-06-11T00:19:45.695Z,17.30
2023-06-11T00:20:45.695Z,17.34
2023-06-11T00:21:45.665Z,17.23
2023-06-11T00:22:45.699Z,17.36
2023-06-11T00:23:45.635Z,17.29
2023-06-11T00:24:45.635Z,17.19
2023-06-11T00:25:45.610Z,17.15
2023-06-11T00:26:45.633Z,17.16
2023-06-11T00:27:45.601Z,17.09
2023-06-11T00:28:45.606Z,17.20
2023-06-11T00:29:45.598Z,17.19
2023-06-11T00:30:45.608Z,17.15
2023-06-11T00:31:45.645Z,17.24
2023-06-11T00:32:45.633Z,17.20
2023-06-11T00:33:45.577Z,17.14
2023-06-11T00:34:45.562Z,17.23
2023-06-11T00:35:45.553Z,17.16
2023-06-11T00:36:45.553Z,17.16
2023-06-11T00:37:45.537Z,17.14
2023-06-11T00:38:45.530Z,17.14
2023-06-11T00:39:45.495Z,17.08
2023-06-11T00:40:45.527Z,17.12
2023-06-11T00:41:45.491Z,17.04
2023-06-11T00:42:45.490Z,17.05
2023-06-11T00:43:45.469Z,17.05
2023-06-11T00:44:45.506Z,17.06
2023-06-11T00:45:45.462Z,17.06
2023-06-11T00:46:45.449Z,16.97
2023-06-11T00:47:45.507Z,17.02
2023-06-11T00:48:45.447Z,17.06
2023-06-11T00:49:45.421Z,17.09
2023-06-11T00:50:45.467Z,17.04
2023-06-11T00:51:45.392Z,17.02
2023-06-11T00:52:45.397Z,17.05
2023-06-11T00:53:45.376Z,17.06
2023-06-11T00:54:45.371Z,16.89
2023-06-11T00:55:45.382Z,16.93
2023-06-11T00:56:45.401Z,16.87
2023-06-11T00:57:45.335Z,16.90
2023-06-11T00:58:45.391Z,16.83
2023-06-11T00:59:45.308Z,16.97
2023-06-11T01:00:45.364Z,16.93
2023-06-11T01:01:45.311Z,17.01
2023-06-11T01:02:45.342Z,17.01
2023-06-11T01:03:45.276Z,17.02
2023-06-11T01:04:45.382Z,16.89
2023-06-11T01:05:45.331Z,17.01
2023-06-11T01:06:45.281Z,16.90
2023-06-11T01:07:45.243Z,16.83
2023-06-11T01:08:45.275Z,16.89
2023-06-11T01:09:45.232Z,16.90
2023-06-11T01:10:45.251Z,16.86
2023-06-11T01:11:45.220Z,16.89
2023-06-11T01:12:45.264Z,16.84
2023-06-11T01:13:45.235Z,16.75
2023-06-11T01:14:45.241Z,16.84
2023-06-11T01:15:45.223Z,16.75
2023-06-11T01:16:45.196Z,16.68
2023-06-11T01:17:45.252Z,16.66
2023-06-11T01:18:45.186Z,16.71
2023-06-11T01:19:45.171Z,16.72
2023-06-11T01:20:45.161Z,16.66
2023-06-11T01:21:45.127Z,16.64
2023-06-11T01:22:45.169Z,16.57
2023-06-11T01:23:45.131Z,16.60
2023-06-11T01:24:45.128Z,16.56
2023-06-11T01:25:45.148Z,16.61
2023-06-11T01:26:45.112Z,16.56
2023-06-11T01:27:45.107Z,16.58
2023-06-11T01:28:45.102Z,16.51
2023-06-11T01:29:45.069Z,16.50
2023-06-11T01:30:45.091Z,16.43
2023-06-11T01:31:45.117Z,16.50
2023-06-11T01:32:45.087Z,16.43
2023-06-11T01:33:45.084Z,16.41
2023-06-11T01:34:45.065Z,16.36
2023-06-11T01:35:45.026Z,16.35
2023-06-11T01:36:45.050Z,16.32
2023-06-11T01:37:45.020Z,16.38
2023-06-11T01:38:45.037Z,16.31
2023-06-11T01:39:45.032Z,16.20
2023-06-11T01:40:44.990Z,16.23
2023-06-11T01:41:44.970Z,16.23
2023-06-11T01:42:45.002Z,16.21
2023-06-11T01:43:44.986Z,16.20
2023-06-11T01:44:44.977Z,16.16
2023-06-11T01:45:44.973Z,16.23
2023-06-11T01:46:45.000Z,16.21
2023-06-11T01:47:44.957Z,16.17
2023-06-11T01:48:44.932Z,16.16
2023-06-11T01:49:44.973Z,16.12
2023-06-11T01:50:44.908Z,16.15
2023-06-11T01:51:44.888Z,16.10
2023-06-11T01:52:44.893Z,16.16
2023-06-11T01:53:44.862Z,16.00
2023-06-11T01:54:44.908Z,16.01
2023-06-11T01:55:44.873Z,15.98
2023-06-11T01:56:44.854Z,15.94
2023-06-11T01:57:44.903Z,15.82
2023-06-11T01:58:44.850Z,15.77
2023-06-11T01:59:44.832Z,15.80
2023-06-11T02:00:44.862Z,15.68
2023-06-11T02:01:44.892Z,15.64
2023-06-11T02:02:44.948Z,15.57
2023-06-11T02:03:44.874Z,15.62
2023-06-11T02:04:44.790Z,15.65
2023-06-11T02:05:44.779Z,15.59
2023-06-11T02:06:44.792Z,15.61
2023-06-11T02:07:44.753Z,15.47
2023-06-11T02:08:44.814Z,15.42
2023-06-11T02:09:44.739Z,15.35
2023-06-11T02:10:44.759Z,15.36
2023-06-11T02:11:44.723Z,15.37
2023-06-11T02:12:44.729Z,15.22
2023-06-11T02:13:44.713Z,15.15
2023-06-11T02:14:44.791Z,15.15
2023-06-11T02:15:44.691Z,15.03
2023-06-11T02:16:44.720Z,14.97
2023-06-11T02:17:44.685Z,15.06
2023-06-11T02:18:44.684Z,15.00
2023-06-11T02:19:44.669Z,15.02
2023-06-11T02:20:44.703Z,14.99
2023-06-11T02:21:44.632Z,15.06
2023-06-11T02:22:44.686Z,15.03
2023-06-11T02:23:44.692Z,15.06
2023-06-11T02:24:44.665Z,15.07
2023-06-11T02:25:44.644Z,15.07
2023-06-11T02:26:44.631Z,15.09
2023-06-11T02:27:44.594Z,15.17
2023-06-11T02:28:44.592Z,15.10
2023-06-11T02:29:44.564Z,15.04
2023-06-11T02:30:44.578Z,15.18
2023-06-11T02:31:44.637Z,15.15
2023-06-11T02:32:44.618Z,15.17
2023-06-11T02:33:44.532Z,15.24
2023-06-11T02:34:44.538Z,15.29
2023-06-11T02:35:44.534Z,15.19
2023-06-11T02:36:44.556Z,15.17
2023-06-11T02:37:44.488Z,15.11
2023-06-11T02:38:44.513Z,15.14
2023-06-11T02:39:44.476Z,15.00
2023-06-11T02:40:44.487Z,15.04
2023-06-11T02:41:44.464Z,15.09
2023-06-11T02:42:44.481Z,15.04
2023-06-11T02:43:44.464Z,15.07
2023-06-11T02:44:44.461Z,15.14
2023-06-11T02:45:44.533Z,15.14
2023-06-11T02:46:44.475Z,15.06
2023-06-11T02:47:44.425Z,15.06
2023-06-11T02:48:44.418Z,15.02
2023-06-11T02:49:44.407Z,14.97
2023-06-11T02:50:44.429Z,14.89
2023-06-11T02:51:44.378Z,14.89
2023-06-11T02:52:44.402Z,14.89
2023-06-11T02:53:44.358Z,14.88
2023-06-11T02:54:44.410Z,14.84
2023-06-11T02:55:44.370Z,14.88
2023-06-11T02:56:44.349Z,14.70
2023-06-11T02:57:44.345Z,14.68
2023-06-11T02:58:44.332Z,14.68
2023-06-11T02:59:44.338Z,14.55
2023-06-11T03:00:44.316Z,14.69
2023-06-11T03:01:44.310Z,14.70
2023-06-11T03:02:44.357Z,14.60
2023-06-11T03:03:44.289Z,14.59
2023-06-11T03:04:44.280Z,14.62
2023-06-11T03:05:44.285Z,14.60
2023-06-11T03:06:44.257Z,14.63
2023-06-11T03:07:44.243Z,14.68
2023-06-11T03:08:44.273Z,14.66
2023-06-11T03:09:44.225Z,14.58
2023-06-11T03:10:44.230Z,14.59
2023-06-11T03:11:44.232Z,14.55
2023-06-11T03:12:44.216Z,14.66
2023-06-11T03:13:44.184Z,14.58
2023-06-11T03:14:44.198Z,14.54
2023-06-11T03:15:44.185Z,14.66
2023-06-11T03:16:44.185Z,14.62
2023-06-11T03:17:44.197Z,14.55
2023-06-11T03:18:44.171Z,14.62
2023-06-11T03:19:44.151Z,14.58
2023-06-11T03:20:44.148Z,14.63
2023-06-11T03:21:44.122Z,14.65
2023-06-11T03:22:44.153Z,14.63
2023-06-11T03:23:44.159Z,14.55
2023-06-11T03:24:44.108Z,14.53
2023-06-11T03:25:44.083Z,14.55
2023-06-11T03:26:44.093Z,14.45
2023-06-11T03:27:44.076Z,14.54
2023-06-11T03:28:44.095Z,14.55
2023-06-11T03:29:44.037Z,14.70
2023-06-11T03:30:44.116Z,14.63
2023-06-11T03:31:44.088Z,14.79
2023-06-11T03:32:44.076Z,14.85
2023-06-11T03:33:44.010Z,14.86
2023-06-11T03:34:44.597Z,14.86
2023-06-11T03:35:44.025Z,14.99
2023-06-11T03:36:44.046Z,14.96
2023-06-11T03:37:43.976Z,14.89
2023-06-11T03:38:43.994Z,14.99
2023-06-11T03:39:43.992Z,14.99
2023-06-11T03:40:43.979Z,15.10
2023-06-11T03:41:43.958Z,15.18
2023-06-11T03:42:43.970Z,15.33
2023-06-11T03:43:43.926Z,15.33
2023-06-11T03:44:43.927Z,15.40
2023-06-11T03:45:43.912Z,15.46
2023-06-11T03:46:43.970Z,15.57
2023-06-11T03:47:43.903Z,15.59
2023-06-11T03:48:43.903Z,15.67
2023-06-11T03:49:43.877Z,15.72
2023-06-11T03:50:43.952Z,15.76
2023-06-11T03:51:43.868Z,15.67
2023-06-11T03:52:43.888Z,15.76
2023-06-11T03:53:43.841Z,15.98
2023-06-11T03:54:43.857Z,16.21
2023-06-11T03:55:43.876Z,16.32
2023-06-11T03:56:43.836Z,16.29
2023-06-11T03:57:43.814Z,16.50
2023-06-11T03:58:43.817Z,16.58
2023-06-11T03:59:43.789Z,16.76
2023-06-11T04:00:43.810Z,16.91
2023-06-11T04:01:43.807Z,16.91
2023-06-11T04:02:43.873Z,17.04
2023-06-11T04:03:43.871Z,17.11
2023-06-11T04:04:43.823Z,17.34
2023-06-11T04:05:43.747Z,17.48
2023-06-11T04:06:43.774Z,17.72
2023-06-11T04:07:43.722Z,17.52
2023-06-11T04:08:43.734Z,17.46
2023-06-11T04:09:43.716Z,17.31
2023-06-11T04:10:43.761Z,17.42
2023-06-11T04:11:43.709Z,17.48
2023-06-11T04:12:43.732Z,17.56
2023-06-11T04:13:43.687Z,17.85
2023-06-11T04:14:43.702Z,17.80
2023-06-11T04:15:43.697Z,18.07
2023-06-11T04:16:43.694Z,18.19
2023-06-11T04:17:43.677Z,18.20
2023-06-11T04:18:43.644Z,18.35
2023-06-11T04:19:43.651Z,18.35
2023-06-11T04:20:43.652Z,18.34
2023-06-11T04:21:43.613Z,18.20
2023-06-11T04:22:43.650Z,18.05
2023-06-11T04:23:43.656Z,18.23
2023-06-11T04:24:43.600Z,18.25
2023-06-11T04:25:43.581Z,18.38
2023-06-11T04:26:43.584Z,18.33
2023-06-11T04:27:43.566Z,18.45
2023-06-11T04:28:43.596Z,18.71
2023-06-11T04:29:43.538Z,18.93
2023-06-11T04:30:43.549Z,19.04
2023-06-11T04:31:43.575Z,19.15
2023-06-11T04:32:43.562Z,19.04
2023-06-11T04:33:43.515Z,18.98
2023-06-11T04:34:43.533Z,18.47
2023-06-11T04:35:43.495Z,18.22
2023-06-11T04:36:43.509Z,18.25
2023-06-11T04:37:43.504Z,18.03
2023-06-11T04:38:43.480Z,17.89
2023-06-11T04:39:43.472Z,18.01
2023-06-11T04:40:43.542Z,18.49
2023-06-11T04:41:43.444Z,18.45
2023-06-11T04:42:43.454Z,18.68
2023-06-11T04:43:43.439Z,18.75
2023-06-11T04:44:43.443Z,18.81
2023-06-11T04:45:43.438Z,18.89
2023-06-11T04:46:43.471Z,18.86
2023-06-11T04:47:43.412Z,19.00
2023-06-11T04:48:43.403Z,18.81
2023-06-11T04:49:43.406Z,18.80
2023-06-11T04:50:43.390Z,18.71
2023-06-11T04:51:43.401Z,18.66
2023-06-11T04:52:43.389Z,18.44
2023-06-11T04:53:43.397Z,18.49
2023-06-11T04:54:43.427Z,18.68
2023-06-11T04:55:43.385Z,18.81
2023-06-11T04:56:43.394Z,18.89
2023-06-11T04:57:43.346Z,19.18
2023-06-11T04:58:43.375Z,19.04
2023-06-11T04:59:43.313Z,18.92
2023-06-11T05:00:43.337Z,18.88
2023-06-11T05:01:43.419Z,18.98
2023-06-11T05:02:43.338Z,19.39
2023-06-11T05:03:43.414Z,19.33
2023-06-11T05:04:43.322Z,19.66
2023-06-11T05:05:43.345Z,20.03
2023-06-11T05:06:43.270Z,19.91
2023-06-11T05:07:43.289Z,20.00
2023-06-11T05:08:43.268Z,20.26
2023-06-11T05:09:45.844Z,20.70
2023-06-11T05:10:43.280Z,20.85
2023-06-11T05:11:43.233Z,21.20
2023-06-11T05:12:43.259Z,21.15
2023-06-11T05:13:43.217Z,21.36
2023-06-11T05:14:43.248Z,21.30
2023-06-11T05:15:43.244Z,21.35
2023-06-11T05:16:43.306Z,21.62
2023-06-11T05:17:43.363Z,21.88
2023-06-11T05:18:43.211Z,22.38
2023-06-11T05:19:43.197Z,22.60
2023-06-11T05:20:43.181Z,22.70
2023-06-11T05:21:43.184Z,22.73
2023-06-11T05:22:43.192Z,22.90
2023-06-11T05:23:43.150Z,23.02
2023-06-11T05:24:43.166Z,22.91
2023-06-11T05:25:43.124Z,22.32
2023-06-11T05:26:43.222Z,22.60
2023-06-11T05:27:43.152Z,22.29
2023-06-11T05:28:43.136Z,22.35
2023-06-11T05:29:45.899Z,22.33
2023-06-11T05:30:43.102Z,22.54
2023-06-11T05:31:43.213Z,23.17
2023-06-11T05:32:43.173Z,23.66
2023-06-11T05:33:43.064Z,23.59
2023-06-11T05:34:43.099Z,23.43
2023-06-11T05:35:43.115Z,22.84
2023-06-11T05:36:43.074Z,22.75
2023-06-11T05:37:43.055Z,22.93
2023-06-11T05:38:43.079Z,22.80
2023-06-11T05:39:43.087Z,22.48
2023-06-11T05:40:43.071Z,22.59
2023-06-11T05:41:43.017Z,22.25
2023-06-11T05:42:43.041Z,22.22
2023-06-11T05:43:43.008Z,22.29
2023-06-11T05:44:43.033Z,22.59
2023-06-11T05:45:43.013Z,22.73
2023-06-11T05:46:43.131Z,22.44
2023-06-11T05:47:43.063Z,23.06
2023-06-11T05:48:43.049Z,23.37
2023-06-11T05:49:43.000Z,23.36
2023-06-11T05:50:42.969Z,22.90
2023-06-11T05:51:42.928Z,22.88
2023-06-11T05:52:42.955Z,23.54
2023-06-11T05:53:42.930Z,23.71
2023-06-11T05:54:42.953Z,23.83
2023-06-11T05:55:42.941Z,23.09
2023-06-11T05:56:42.960Z,23.36
2023-06-11T05:57:42.900Z,23.62
2023-06-11T05:58:42.898Z,23.34
2023-06-11T05:59:42.895Z,22.81
2023-06-11T06:00:42.932Z,23.17
2023-06-11T06:01:42.884Z,23.37
2023-06-11T06:02:42.954Z,22.84
2023-06-11T06:03:42.956Z,23.09
2023-06-11T06:04:42.893Z,23.27
2023-06-11T06:05:42.827Z,23.47
2023-06-11T06:06:42.845Z,23.28
2023-06-11T06:07:42.835Z,23.47
2023-06-11T06:08:45.474Z,23.27
2023-06-11T06:09:42.792Z,23.61
2023-06-11T06:10:42.802Z,23.93
2023-06-11T06:11:42.781Z,23.56
2023-06-11T06:12:42.825Z,23.63
2023-06-11T06:13:42.786Z,23.20
2023-06-11T06:14:42.820Z,23.12
2023-06-11T06:15:42.770Z,23.15
2023-06-11T06:16:42.807Z,23.13
2023-06-11T06:17:42.838Z,22.96
2023-06-11T06:18:42.774Z,23.10
2023-06-11T06:19:42.740Z,23.59
2023-06-11T06:20:42.765Z,23.98
2023-06-11T06:21:42.703Z,23.91
2023-06-11T06:22:42.797Z,23.15
2023-06-11T06:23:42.798Z,23.27
2023-06-11T06:24:42.714Z,22.99
2023-06-11T06:25:42.711Z,23.39
2023-06-11T06:26:42.687Z,23.03
2023-06-11T06:27:42.686Z,22.98
2023-06-11T06:28:42.671Z,23.86
2023-06-11T06:29:42.655Z,24.42
2023-06-11T06:30:42.691Z,24.65
2023-06-11T06:31:42.734Z,24.47
2023-06-11T06:32:42.657Z,24.47
2023-06-11T06:33:42.634Z,24.33
2023-06-11T06:34:42.628Z,24.61
2023-06-11T06:35:42.659Z,25.06
2023-06-11T06:36:42.644Z,24.86
2023-06-11T06:37:42.608Z,25.01
2023-06-11T06:38:42.623Z,24.85
2023-06-11T06:39:42.580Z,24.69
2023-06-11T06:40:42.591Z,24.92
2023-06-11T06:41:42.581Z,24.92
2023-06-11T06:42:42.582Z,25.72
2023-06-11T06:43:42.555Z,25.81
2023-06-11T06:44:42.562Z,25.73
2023-06-11T06:45:42.556Z,25.23
2023-06-11T06:46:42.555Z,25.58
2023-06-11T06:47:42.566Z,25.50
2023-06-11T06:48:42.608Z,25.78
2023-06-11T06:49:42.525Z,26.23
2023-06-11T06:50:42.528Z,26.75
2023-06-11T06:51:42.509Z,26.29
2023-06-11T06:52:42.521Z,26.16
2023-06-11T06:53:42.494Z,26.65
2023-06-11T06:54:42.481Z,26.77
2023-06-11T06:55:42.479Z,26.19
2023-06-11T06:56:42.482Z,26.00
2023-06-11T06:57:42.481Z,25.88
2023-06-11T06:58:42.452Z,26.02
2023-06-11T06:59:42.449Z,26.15
2023-06-11T07:00:42.447Z,25.77
2023-06-11T07:01:42.624Z,26.25
2023-06-11T07:02:43.028Z,26.96
2023-06-11T07:03:42.433Z,27.35
2023-06-11T07:04:42.440Z,28.00
2023-06-11T07:05:42.464Z,26.84
2023-06-11T07:06:42.396Z,26.80
2023-06-11T07:07:43.678Z,27.00
2023-06-11T07:08:42.411Z,26.52
2023-06-11T07:09:42.376Z,26.99
2023-06-11T07:10:42.408Z,27.54
2023-06-11T07:11:42.351Z,27.45
2023-06-11T07:12:42.394Z,27.40
2023-06-11T07:13:42.326Z,27.75
2023-06-11T07:14:42.379Z,27.45
2023-06-11T07:15:42.362Z,26.99
2023-06-11T07:16:42.430Z,27.22
2023-06-11T07:17:42.331Z,27.49
2023-06-11T07:18:42.336Z,27.95
2023-06-11T07:19:42.335Z,27.85
2023-06-11T07:20:42.327Z,27.42
2023-06-11T07:21:42.279Z,27.55
2023-06-11T07:22:42.484Z,28.05
2023-06-11T07:23:42.322Z,27.63
2023-06-11T07:24:42.281Z,27.02
2023-06-11T07:25:42.255Z,26.23
2023-06-11T07:26:42.267Z,26.06
2023-06-11T07:27:42.234Z,26.53
2023-06-11T07:28:42.266Z,26.77
2023-06-11T07:29:42.274Z,26.77
2023-06-11T07:30:42.272Z,27.51
2023-06-11T07:31:42.291Z,27.54
2023-06-11T07:32:42.281Z,28.20
2023-06-11T07:33:42.195Z,28.25
2023-06-11T07:34:42.411Z,27.89
2023-06-11T07:35:42.170Z,27.22
2023-06-11T07:36:42.236Z,27.00
2023-06-11T07:37:42.205Z,27.47
2023-06-11T07:38:42.184Z,27.18
2023-06-11T07:39:42.156Z,26.89
2023-06-11T07:40:42.191Z,27.54
2023-06-11T07:41:42.184Z,28.27
2023-06-11T07:42:42.155Z,28.41
2023-06-11T07:43:42.221Z,28.70
2023-06-11T07:44:42.171Z,28.88
2023-06-11T07:45:42.141Z,27.20
2023-06-11T07:46:42.229Z,26.71
2023-06-11T07:47:42.163Z,27.21
2023-06-11T07:48:42.115Z,27.12
2023-06-11T07:49:42.116Z,27.75
2023-06-11T07:50:42.097Z,27.64
2023-06-11T07:51:42.082Z,27.55
2023-06-11T07:52:42.085Z,27.40
2023-06-11T07:53:42.050Z,28.42
2023-06-11T07:54:42.070Z,28.82
2023-06-11T07:55:42.062Z,28.59
2023-06-11T07:56:42.055Z,28.17
2023-06-11T07:57:42.073Z,28.94
2023-06-11T07:58:42.027Z,29.91
2023-06-11T07:59:42.028Z,29.24
2023-06-11T08:00:42.067Z,28.78
2023-06-11T08:01:42.385Z,29.05
2023-06-11T08:02:42.346Z,29.05
2023-06-11T08:03:42.006Z,29.07
2023-06-11T08:04:41.998Z,29.23
2023-06-11T08:05:42.023Z,28.97
2023-06-11T08:06:42.015Z,28.81
2023-06-11T08:07:41.986Z,28.76
2023-06-11T08:08:41.981Z,29.08
2023-06-11T08:09:41.959Z,29.01
2023-06-11T08:10:41.989Z,29.02
2023-06-11T08:11:41.972Z,29.23
2023-06-11T08:12:42.066Z,29.87
2023-06-11T08:13:41.922Z,29.95
2023-06-11T08:14:41.944Z,30.35
2023-06-11T08:15:41.928Z,29.56
2023-06-11T08:16:42.092Z,28.96
2023-06-11T08:17:42.017Z,29.35
2023-06-11T08:18:41.928Z,30.15
2023-06-11T08:19:41.891Z,29.84
2023-06-11T08:20:41.921Z,29.20
2023-06-11T08:21:41.896Z,28.97
2023-06-11T08:22:41.914Z,29.20
2023-06-11T08:23:41.861Z,29.38
2023-06-11T08:24:41.857Z,29.51
2023-06-11T08:25:41.870Z,29.60
2023-06-11T08:26:41.934Z,29.53
2023-06-11T08:27:41.843Z,29.47
2023-06-11T08:28:41.838Z,28.89
2023-06-11T08:29:41.819Z,29.44
2023-06-11T08:30:41.849Z,29.72
2023-06-11T08:31:41.898Z,30.47
2023-06-11T08:32:41.828Z,30.99
2023-06-11T08:33:44.442Z,30.94
2023-06-11T08:34:41.813Z,30.06
2023-06-11T08:35:41.864Z,29.65
2023-06-11T08:36:41.801Z,30.25
2023-06-11T08:37:41.774Z,30.21
2023-06-11T08:38:41.894Z,30.39
2023-06-11T08:39:41.796Z,29.94
2023-06-11T08:40:41.769Z,29.94
2023-06-11T08:41:41.776Z,30.09
2023-06-11T08:42:41.800Z,29.73
2023-06-11T08:43:41.728Z,29.24
2023-06-11T08:44:41.728Z,29.47
2023-06-11T08:45:41.815Z,28.60
2023-06-11T08:46:41.760Z,28.38
2023-06-11T08:47:41.724Z,28.39
2023-06-11T08:48:41.733Z,28.86
2023-06-11T08:49:41.782Z,29.60
2023-06-11T08:50:41.692Z,29.57
2023-06-11T08:51:41.662Z,29.91
2023-06-11T08:52:41.680Z,29.76
2023-06-11T08:53:41.676Z,29.71
2023-06-11T08:54:41.699Z,29.41
2023-06-11T08:55:41.632Z,28.67
2023-06-11T08:56:41.692Z,29.27
2023-06-11T08:57:41.625Z,29.61
2023-06-11T08:58:41.640Z,29.17
2023-06-11T08:59:41.612Z,29.51
2023-06-11T09:00:41.641Z,29.93
2023-06-11T09:01:41.900Z,29.91
2023-06-11T09:02:41.656Z,30.31
2023-06-11T09:03:41.633Z,30.62
2023-06-11T09:04:41.869Z,29.90
2023-06-11T09:05:41.591Z,29.22
2023-06-11T09:06:41.684Z,29.53
2023-06-11T09:07:41.557Z,29.87
2023-06-11T09:08:41.568Z,29.71
2023-06-11T09:09:41.551Z,29.60
2023-06-11T09:10:41.554Z,29.45
2023-06-11T09:11:41.530Z,29.59
2023-06-11T09:12:41.678Z,28.79
2023-06-11T09:13:41.554Z,28.33
2023-06-11T09:14:41.520Z,28.91
2023-06-11T09:15:41.517Z,29.22
2023-06-11T09:16:41.699Z,28.79
2023-06-11T09:17:41.546Z,28.63
2023-06-11T09:18:41.493Z,29.42
2023-06-11T09:19:41.479Z,30.27
2023-06-11T09:20:41.483Z,30.62
2023-06-11T09:21:41.473Z,30.81
2023-06-11T09:22:41.493Z,30.47
2023-06-11T09:23:41.465Z,29.97
2023-06-11T09:24:41.475Z,30.32
2023-06-11T09:25:41.485Z,30.23
2023-06-11T09:26:41.460Z,28.89
2023-06-11T09:27:41.424Z,28.78
2023-06-11T09:28:41.441Z,29.90
2023-06-11T09:29:41.419Z,30.77
2023-06-11T09:30:41.437Z,30.81
2023-06-11T09:31:42.694Z,30.43
2023-06-11T09:32:41.594Z,30.62
2023-06-11T09:33:41.498Z,30.94
2023-06-11T09:34:41.439Z,30.77
2023-06-11T09:35:41.376Z,30.62
2023-06-11T09:36:42.640Z,30.70
2023-06-11T09:37:41.471Z,30.92
2023-06-11T09:38:41.373Z,31.39
2023-06-11T09:39:41.445Z,30.63
2023-06-11T09:40:41.382Z,31.22
2023-06-11T09:41:41.342Z,31.15
2023-06-11T09:42:41.383Z,31.03
2023-06-11T09:43:41.324Z,31.37
2023-06-11T09:44:41.583Z,31.02
2023-06-11T09:45:41.400Z,30.80
2023-06-11T09:46:41.320Z,30.43
2023-06-11T09:47:41.356Z,29.82
2023-06-11T09:48:41.363Z,29.53
2023-06-11T09:49:41.405Z,29.90
2023-06-11T09:50:41.325Z,29.69
2023-06-11T09:51:41.274Z,29.66
2023-06-11T09:52:41.280Z,29.71
2023-06-11T09:53:41.301Z,30.03
2023-06-11T09:54:41.273Z,30.19
2023-06-11T09:55:41.436Z,29.63
2023-06-11T09:56:41.263Z,29.90
2023-06-11T09:57:41.373Z,30.54
2023-06-11T09:58:41.232Z,30.97
2023-06-11T09:59:41.259Z,30.77
2023-06-11T10:00:41.269Z,30.92
2023-06-11T10:01:41.283Z,30.75
2023-06-11T10:02:41.312Z,30.94
2023-06-11T10:03:41.357Z,31.06
2023-06-11T10:04:41.221Z,30.78
2023-06-11T10:05:41.197Z,31.00
2023-06-11T10:06:41.193Z,31.09
2023-06-11T10:07:41.172Z,31.25
2023-06-11T10:08:41.272Z,30.09
2023-06-11T10:09:41.168Z,29.82
2023-06-11T10:10:41.259Z,29.69
2023-06-11T10:11:41.205Z,28.97
2023-06-11T10:12:41.165Z,28.93
2023-06-11T10:13:41.150Z,28.84
2023-06-11T10:14:41.180Z,29.24
2023-06-11T10:15:41.195Z,29.38
2023-06-11T10:16:41.220Z,29.05
2023-06-11T10:17:43.667Z,28.57
2023-06-11T10:18:41.196Z,28.94
2023-06-11T10:19:41.262Z,29.05
2023-06-11T10:20:41.128Z,29.22
2023-06-11T10:21:41.107Z,29.27
2023-06-11T10:22:41.126Z,29.63
2023-06-11T10:23:41.076Z,29.44
2023-06-11T10:24:41.100Z,29.12
2023-06-11T10:25:41.139Z,29.16
2023-06-11T10:26:41.078Z,29.24
2023-06-11T10:27:41.057Z,29.71
2023-06-11T10:28:41.117Z,29.75
2023-06-11T10:29:41.055Z,29.12
2023-06-11T10:30:41.073Z,29.14
2023-06-11T10:31:41.024Z,29.60
2023-06-11T10:32:41.124Z,29.84
2023-06-11T10:33:41.030Z,30.30
2023-06-11T10:34:41.240Z,30.57
2023-06-11T10:35:41.036Z,30.62
2023-06-11T10:36:41.023Z,30.32
2023-06-11T10:37:41.016Z,29.94
2023-06-11T10:38:41.104Z,29.24
2023-06-11T10:39:40.962Z,29.49
2023-06-11T10:40:40.983Z,29.04
2023-06-11T10:41:40.961Z,29.42
2023-06-11T10:42:40.995Z,29.31
2023-06-11T10:43:40.973Z,28.96
2023-06-11T10:44:40.961Z,28.85
2023-06-11T10:45:40.934Z,29.22
2023-06-11T10:46:41.018Z,29.14
2023-06-11T10:47:40.951Z,29.53
2023-06-11T10:48:40.961Z,29.57
2023-06-11T10:49:40.915Z,29.29
2023-06-11T10:50:40.919Z,29.68
2023-06-11T10:51:40.954Z,29.82
2023-06-11T10:52:41.136Z,29.44
2023-06-11T10:53:40.870Z,29.59
2023-06-11T10:54:40.909Z,29.95
2023-06-11T10:55:40.897Z,29.47
2023-06-11T10:56:40.922Z,29.34
2023-06-11T10:57:40.855Z,29.19
2023-06-11T10:58:40.876Z,29.32
2023-06-11T10:59:40.867Z,29.08
2023-06-11T11:00:40.850Z,29.02
2023-06-11T11:01:40.914Z,28.96
2023-06-11T11:02:40.918Z,28.49
2023-06-11T11:03:40.966Z,28.37
2023-06-11T11:04:40.826Z,28.33
2023-06-11T11:05:40.800Z,28.42
2023-06-11T11:06:40.813Z,28.63
2023-06-11T11:07:40.805Z,28.41
2023-06-11T11:08:40.788Z,28.57
2023-06-11T11:09:40.771Z,28.08
2023-06-11T11:10:40.778Z,28.38
2023-06-11T11:11:40.788Z,28.78
2023-06-11T11:12:40.802Z,28.59
2023-06-11T11:13:40.739Z,28.23
2023-06-11T11:14:40.758Z,28.45
2023-06-11T11:15:40.723Z,28.89
2023-06-11T11:16:40.800Z,28.88
2023-06-11T11:17:40.730Z,29.44
2023-06-11T11:18:40.731Z,29.44
2023-06-11T11:19:40.733Z,29.75
2023-06-11T11:20:40.750Z,29.02
2023-06-11T11:21:40.759Z,28.69
2023-06-11T11:22:40.710Z,29.10
2023-06-11T11:23:40.821Z,29.16
2023-06-11T11:24:41.055Z,29.07
2023-06-11T11:25:40.652Z,29.10
2023-06-11T11:26:40.667Z,28.60
2023-06-11T11:27:40.721Z,28.45
2023-06-11T11:28:40.688Z,28.79
2023-06-11T11:29:40.689Z,28.78
2023-06-11T11:30:40.658Z,28.69
2023-06-11T11:31:40.637Z,28.56
2023-06-11T11:32:40.647Z,28.85
2023-06-11T11:33:40.649Z,28.86
2023-06-11T11:34:40.623Z,28.41
2023-06-11T11:35:40.687Z,28.37
2023-06-11T11:36:40.599Z,28.29
2023-06-11T11:37:40.593Z,28.26
2023-06-11T11:38:40.607Z,28.47
2023-06-11T11:39:40.562Z,28.14
2023-06-11T11:40:40.605Z,27.92
2023-06-11T11:41:40.588Z,28.27
2023-06-11T11:42:40.579Z,28.27
2023-06-11T11:43:40.548Z,28.29
2023-06-11T11:44:40.628Z,28.15
2023-06-11T11:45:40.599Z,27.92
2023-06-11T11:46:40.559Z,28.07
2023-06-11T11:47:40.571Z,28.25
2023-06-11T11:48:40.525Z,28.33
2023-06-11T11:49:40.501Z,28.23
2023-06-11T11:50:40.553Z,28.14
2023-06-11T11:51:40.496Z,28.27
2023-06-11T11:52:40.514Z,28.60
2023-06-11T11:53:40.495Z,28.42
2023-06-11T11:54:40.505Z,27.75
2023-06-11T11:56:40.578Z,28.70
2023-06-11T11:57:40.465Z,28.69
2023-06-11T11:58:40.530Z,28.60
2023-06-11T11:59:40.455Z,28.20
2023-06-11T12:00:40.441Z,27.98
2023-06-11T12:01:40.431Z,27.93
2023-06-11T12:02:40.603Z,27.64
2023-06-11T12:03:40.682Z,27.71
2023-06-11T12:04:40.480Z,27.89
2023-06-11T12:05:40.422Z,28.19
2023-06-11T12:06:40.436Z,28.39
2023-06-11T12:07:40.542Z,28.54
2023-06-11T12:08:40.379Z,28.64
2023-06-11T12:09:40.451Z,27.85
2023-06-11T12:10:40.390Z,27.70
2023-06-11T12:11:51.926Z,28.02
2023-06-11T12:12:41.363Z,28.12
2023-06-11T12:13:40.440Z,28.63
2023-06-11T12:14:40.345Z,28.59
2023-06-11T12:15:40.323Z,28.37
2023-06-11T12:16:40.362Z,28.05
2023-06-11T12:17:40.312Z,28.23
2023-06-11T12:18:40.333Z,28.54
2023-06-11T12:19:40.291Z,28.54
2023-06-11T12:20:40.319Z,28.86
2023-06-11T12:21:40.278Z,28.75
2023-06-11T12:22:40.303Z,28.89
2023-06-11T12:23:40.301Z,28.94
2023-06-11T12:24:40.392Z,28.44
2023-06-11T12:25:40.262Z,28.44
2023-06-11T12:26:40.259Z,28.47
2023-06-11T12:27:40.261Z,28.42
2023-06-11T12:28:40.281Z,28.59
2023-06-11T12:29:40.255Z,28.17
2023-06-11T12:30:40.230Z,28.02
2023-06-11T12:31:40.278Z,27.93
2023-06-11T12:32:40.232Z,28.08
2023-06-11T12:33:40.190Z,27.82
2023-06-11T12:34:40.224Z,28.02
2023-06-11T12:35:40.191Z,27.90
2023-06-11T12:36:40.208Z,28.07
2023-06-11T12:37:40.165Z,28.39
2023-06-11T12:38:40.497Z,28.47
2023-06-11T12:39:40.148Z,28.23
2023-06-11T12:40:40.183Z,28.00
2023-06-11T12:41:40.136Z,27.98
2023-06-11T12:42:40.146Z,27.92
2023-06-11T12:43:40.134Z,28.05
2023-06-11T12:44:40.136Z,28.04
2023-06-11T12:45:40.203Z,27.95
2023-06-11T12:46:40.156Z,28.19
2023-06-11T12:47:40.105Z,28.52
2023-06-11T12:48:40.098Z,28.32
2023-06-11T12:49:40.077Z,28.12
2023-06-11T12:50:40.095Z,28.49
2023-06-11T12:51:40.098Z,28.67
2023-06-11T12:52:40.087Z,28.81
2023-06-11T12:53:40.053Z,28.54